ADDS METAR Data INFO
IDs: Format: Raw Decoded Include TAF

Data at: 1417 UTC 12 Dec 2017

KEHC 121355Z AUTO 35020KT 10SM CLR 18/07 A3020 RMK A01
KEHC 121335Z AUTO 32016G24KT 10SM CLR 18/08 A3020 RMK A01
KEHC 121315Z AUTO 32023KT 10SM CLR 19/09 A3019 RMK A01
KEHC 121255Z AUTO 31025G31KT 10SM CLR 19/10 A3019 RMK A01
KEHC 121235Z AUTO 31025KT 10SM CLR 20/10 A3018 RMK A01
KEHC 121215Z AUTO 30023G29KT 10SM CLR 20/10 A3017 RMK A01
KEHC 121155Z AUTO 30029KT 10SM CLR 20/09 A3017 RMK A01
KEHC 121135Z AUTO 29025KT 10SM CLR 20/08 A3016 RMK A01
KEHC 121115Z AUTO 29025KT 10SM FEW021 20/10 A3016 RMK A01
KEHC 121055Z AUTO 28023KT 10SM FEW021 20/10 A3016 RMK A01
KEHC 121035Z AUTO 28024KT 10SM CLR 20/10 A3016 RMK A01
KEHC 121015Z AUTO 28023KT 10SM FEW021 20/09 A3016 RMK A01
KEHC 120955Z AUTO 28022KT 10SM FEW021 20/09 A3016 RMK A01
KEHC 120935Z AUTO 27022KT 10SM SCT021 20/10 A3016 RMK A01
KEHC 120915Z AUTO 27022KT 10SM FEW020 20/10 A3015 RMK A01
KEHC 120855Z AUTO 27021KT 10SM FEW020 20/10 A3015 RMK A01
KEHC 120835Z AUTO 27021KT 10SM FEW021 20/10 A3016 RMK A01
KEHC 120815Z AUTO 27020KT 10SM FEW021 20/10 A3016 RMK A01
KEHC 120755Z AUTO 26020KT 10SM FEW022 20/09 A3016 RMK A01
KEHC 120735Z AUTO 26019KT 10SM CLR 20/09 A3016 RMK A01
KEHC 120715Z AUTO 26018KT 10SM CLR 20/10 A3017 RMK A01
KEHC 120655Z AUTO 27018KT 10SM CLR 20/09 A3016 RMK A01
KEHC 120635Z AUTO 26018KT 10SM CLR 20/10 A3017 RMK A01
KEHC 120615Z AUTO 27016KT 10SM FEW022 20/10 A3017 RMK A01
KEHC 120555Z AUTO 27015KT 10SM FEW021 20/10 A3017 RMK A01
KEHC 120535Z AUTO 27015KT 10SM CLR 20/10 A3018 RMK A01
KEHC 120515Z AUTO 26016KT 10SM CLR 20/10 A3019 RMK A01
KEHC 120455Z AUTO 27017KT 10SM CLR 20/10 A3019 RMK A01
KEHC 120435Z AUTO 27016KT 10SM FEW022 20/10 A3019 RMK A01
KEHC 120415Z AUTO 27016KT 10SM FEW023 20/10 A3019 RMK A01
KEHC 120355Z AUTO 28017KT 10SM CLR 20/10 A3020 RMK A01
KEHC 120335Z AUTO 26015G20KT 10SM CLR 20/10 A3020 RMK A01
KEHC 120315Z AUTO 26017KT 10SM CLR 20/10 A3020 RMK A01
KEHC 120255Z AUTO 26015KT 10SM FEW025 19/10 A3020 RMK A01
KEHC 120235Z AUTO 26016KT 10SM CLR 19/09 A3021 RMK A01
KEHC 120215Z AUTO 26017KT 10SM CLR 19/09 A3021 RMK A01
KEHC 120155Z AUTO 25016KT 10SM CLR 19/09 A3021 RMK A01
KEHC 120135Z AUTO 25014KT 10SM CLR 19/08 A3021 RMK A01
KEHC 120115Z AUTO 26014KT 10SM CLR 19/08 A3021 RMK A01
KEHC 120055Z AUTO 25014KT 10SM CLR 19/08 A3020 RMK A01
KEHC 120035Z AUTO 27014KT 10SM CLR 19/08 A3020 RMK A01
KEHC 120015Z AUTO 26011KT 10SM CLR 19/07 A3019 RMK A01
KEHC 112355Z AUTO 26010KT 10SM CLR 19/07 A3019 RMK A01
KEHC 112335Z AUTO 27010KT 10SM CLR 19/08 A3019 RMK A01
KEHC 112315Z AUTO 26012KT 10SM CLR 19/08 A3020 RMK A01
KEHC 112255Z AUTO 27012KT 10SM CLR 19/07 A3021 RMK A01
KEHC 112235Z AUTO 27012KT 10SM CLR 19/07 A3021 RMK A01
KEHC 112215Z AUTO 26011KT 10SM CLR 19/07 A3021 RMK A01
KEHC 112155Z AUTO 26009KT 10SM CLR 19/07 A3020 RMK A01
KEHC 112135Z AUTO 27008KT 10SM CLR 19/07 A3020 RMK A01
KEHC 112115Z AUTO 26007KT 10SM CLR 19/07 A3021 RMK A01
KEHC 112055Z AUTO 26009KT 10SM CLR 19/07 A3022 RMK A01
KEHC 112035Z AUTO 28009KT 10SM CLR 19/06 A3022 RMK A01
KEHC 112015Z AUTO 25008KT 10SM CLR 19/06 A3023 RMK A01
KEHC 111955Z AUTO 27009KT 10SM CLR 19/07 A3023 RMK A01
KEHC 111935Z AUTO 27008KT 10SM CLR 19/07 A3024 RMK A01
KEHC 111915Z AUTO 27010KT 10SM CLR 19/07 A3025 RMK A01
KEHC 111855Z AUTO 27010KT 10SM CLR 18/06 A3026 RMK A01
KEHC 111835Z AUTO 26007KT 10SM CLR 18/06 A3027 RMK A01
KEHC 111815Z AUTO 29006KT 10SM CLR 18/06 A3028 RMK A01
KEHC 111755Z AUTO 28007KT 10SM CLR 18/06 A3029 RMK A01
KEHC 111735Z AUTO 30006KT 10SM CLR 18/06 A3031 RMK A01
KEHC 111715Z AUTO 27007KT 10SM CLR 18/06 A3031 RMK A01
KEHC 111655Z AUTO 28007KT 10SM CLR 18/05 A3033 RMK A01
KEHC 111635Z AUTO 30004KT 10SM CLR 18/05 A3033 RMK A01
KEHC 111615Z AUTO 31007KT 10SM CLR 18/05 A3033 RMK A01
KEHC 111555Z AUTO 30006KT 10SM CLR 18/05 A3034 RMK A01
KEHC 111535Z AUTO VRB04KT 10SM CLR 18/05 A3034 RMK A01
KEHC 111515Z AUTO 30005KT 10SM CLR 18/05 A3034 RMK A01
KEHC 111455Z AUTO 30004KT 10SM CLR 18/05 A3034 RMK A01
KEHC 111435Z AUTO 29005KT 10SM CLR 17/05 A3034 RMK A01
KEHC 111415Z AUTO 30007KT 10SM CLR 17/04 A3034 RMK A01
KEHC 111355Z AUTO 30006G11KT 10SM CLR 17/06 A3034 RMK A01
KEHC 111335Z AUTO 30007KT 10SM CLR 17/05 A3034 RMK A01
KEHC 111315Z AUTO 29007KT 10SM CLR 17/06 A3035 RMK A01
KEHC 111255Z AUTO 31009KT 10SM CLR 17/07 A3034 RMK A01
KEHC 111235Z AUTO 30008KT 10SM CLR 17/06 A3034 RMK A01
KEHC 111215Z AUTO 30010KT 10SM FEW028 17/07 A3034 RMK A01
KEHC 111155Z AUTO 32010KT 10SM CLR 17/06 A3033 RMK A01
KEHC 111135Z AUTO 31009KT 10SM FEW028 17/05 A3033 RMK A01
KEHC 111115Z AUTO 31008KT 10SM SCT028 17/05 A3032 RMK A01
KEHC 111055Z AUTO 32007G12KT 10SM FEW029 17/06 A3032 RMK A01
KEHC 111035Z AUTO 31009KT 10SM CLR 17/05 A3032 RMK A01
KEHC 111015Z AUTO 31009KT 10SM CLR 16/05 A3032 RMK A01
KEHC 110955Z AUTO 32009KT 10SM CLR 16/05 A3033 RMK A01
KEHC 110935Z AUTO 30010KT 10SM CLR 16/05 A3033 RMK A01
KEHC 110915Z AUTO 32009KT 10SM CLR 16/05 A3032 RMK A01
KEHC 110855Z AUTO 31008KT 10SM CLR 16/05 A3032 RMK A01
KEHC 110835Z AUTO 31010KT 10SM CLR 16/05 A3033 RMK A01
KEHC 110815Z AUTO 31008KT 10SM CLR 16/04 A3033 RMK A01
KEHC 110755Z AUTO 30008KT 10SM CLR 16/05 A3033 RMK A01
KEHC 110735Z AUTO 29007KT 10SM CLR 16/05 A3033 RMK A01
KEHC 110715Z AUTO 31008KT 10SM CLR 16/04 A3034 RMK A01
KEHC 110655Z AUTO 32007KT 10SM CLR 16/04 A3033 RMK A01
KEHC 110635Z AUTO 31008KT 10SM CLR 16/05 A3034 RMK A01
KEHC 110615Z AUTO 31008KT 10SM CLR 16/04 A3034 RMK A01
KEHC 110555Z AUTO 31010KT 10SM CLR 16/04 A3034 RMK A01
KEHC 110535Z AUTO 31007KT 10SM CLR 16/04 A3035 RMK A01
KEHC 110515Z AUTO 31009KT 10SM CLR 16/05 A3036 RMK A01
KEHC 110455Z AUTO 32007KT 10SM CLR 16/05 A3036 RMK A01
KEHC 110435Z AUTO 31009KT 10SM CLR 16/04 A3037 RMK A01
KEHC 110415Z AUTO 29006KT 10SM CLR 16/04 A3037 RMK A01
KEHC 110355Z AUTO 31008KT 10SM CLR 16/04 A3038 RMK A01
KEHC 110335Z AUTO 29007KT 10SM CLR 16/04 A3038 RMK A01
KEHC 110315Z AUTO 28007KT 10SM CLR 16/04 A3038 RMK A01
KEHC 110255Z AUTO 28008KT 10SM CLR 16/05 A3038 RMK A01
KEHC 110235Z AUTO 30008KT 10SM CLR 16/05 A3038 RMK A01